createdAt,value
2018-12-21T00:01:19.126Z,6.53
2018-12-21T00:03:47.456Z,6.53
2018-12-21T00:06:15.598Z,6.48
2018-12-21T00:08:43.729Z,6.48
2018-12-21T00:11:11.890Z,6.46
2018-12-21T00:13:40.174Z,6.41
2018-12-21T00:16:08.336Z,6.46
2018-12-21T00:18:36.635Z,6.46
2018-12-21T00:21:04.852Z,6.45
2018-12-21T00:23:33.005Z,6.43
2018-12-21T00:26:01.132Z,6.42
2018-12-21T00:28:29.401Z,6.52
2018-12-21T00:31:03.003Z,6.53
2018-12-21T00:33:36.550Z,6.55
2018-12-21T00:36:10.293Z,6.53
2018-12-21T00:38:43.726Z,6.50
2018-12-21T00:41:13.915Z,6.46
2018-12-21T00:43:47.245Z,6.39
2018-12-21T00:46:21.559Z,6.39
2018-12-21T00:48:50.084Z,6.42
2018-12-21T00:51:18.335Z,6.47
2018-12-21T00:53:46.589Z,6.50
2018-12-21T00:56:14.729Z,6.51
2018-12-21T00:58:42.870Z,6.50
2018-12-21T01:01:11.126Z,6.54
2018-12-21T01:03:39.333Z,6.41
2018-12-21T01:06:07.616Z,6.42
2018-12-21T01:08:35.842Z,6.38
2018-12-21T01:11:04.186Z,6.30
2018-12-21T01:13:32.702Z,6.22
2018-12-21T01:16:00.969Z,6.21
2018-12-21T01:18:29.244Z,6.24
2018-12-21T01:20:58.049Z,6.22
2018-12-21T01:23:26.311Z,6.20
2018-12-21T01:25:54.480Z,6.14
2018-12-21T01:28:22.642Z,6.13
2018-12-21T01:30:50.807Z,6.13
2018-12-21T01:33:18.985Z,6.06
2018-12-21T01:35:47.159Z,6.03
2018-12-21T01:38:15.314Z,6.03
2018-12-21T01:40:43.461Z,6.06
2018-12-21T01:43:11.732Z,6.09
2018-12-21T01:45:39.885Z,5.98
2018-12-21T01:48:08.014Z,5.98
2018-12-21T01:50:36.322Z,5.95
2018-12-21T01:53:04.625Z,6.08
2018-12-21T01:55:32.865Z,6.18
2018-12-21T01:58:00.998Z,6.19
2018-12-21T02:00:29.421Z,6.22
2018-12-21T02:02:57.550Z,6.27
2018-12-21T02:05:25.757Z,6.24
2018-12-21T02:07:53.892Z,6.27
2018-12-21T02:10:22.263Z,6.24
2018-12-21T02:12:50.473Z,6.26
2018-12-21T02:15:18.669Z,6.24
2018-12-21T02:17:46.826Z,6.26
2018-12-21T02:20:15.065Z,6.32
2018-12-21T02:22:43.233Z,6.34
2018-12-21T02:25:11.557Z,6.36
2018-12-21T02:27:39.693Z,6.38
2018-12-21T02:30:08.415Z,6.45
2018-12-21T02:32:36.590Z,6.47
2018-12-21T02:35:05.247Z,6.39
2018-12-21T02:37:33.555Z,6.41
2018-12-21T02:40:01.695Z,6.44
2018-12-21T02:42:29.868Z,6.39
2018-12-21T02:44:58.020Z,6.32
2018-12-21T02:47:27.320Z,6.20
2018-12-21T02:49:55.555Z,6.15
2018-12-21T02:52:23.830Z,6.17
2018-12-21T02:54:51.969Z,6.12
2018-12-21T02:57:20.177Z,6.22
2018-12-21T02:59:48.384Z,6.18
2018-12-21T03:02:16.531Z,6.16
2018-12-21T03:04:44.665Z,6.18
2018-12-21T03:07:12.893Z,6.17
2018-12-21T03:09:41.136Z,6.25
2018-12-21T03:12:09.290Z,6.20
2018-12-21T03:14:37.795Z,6.15
2018-12-21T03:17:05.938Z,6.19
2018-12-21T03:19:34.099Z,6.13
2018-12-21T03:22:02.302Z,6.11
2018-12-21T03:24:30.530Z,6.12
2018-12-21T03:26:58.910Z,6.09
2018-12-21T03:29:27.128Z,6.05
2018-12-21T03:31:55.279Z,6.03
2018-12-21T03:34:23.548Z,6.01
2018-12-21T03:36:51.778Z,6.00
2018-12-21T03:39:20.095Z,6.00
2018-12-21T03:41:48.291Z,6.03
2018-12-21T03:44:16.438Z,6.03
2018-12-21T03:46:44.611Z,6.05
2018-12-21T03:49:12.745Z,6.07
2018-12-21T03:51:40.941Z,6.05
2018-12-21T03:54:09.162Z,6.10
2018-12-21T03:56:37.516Z,6.12
2018-12-21T03:59:05.858Z,6.14
2018-12-21T04:01:34.122Z,6.13
2018-12-21T04:04:02.335Z,6.15
2018-12-21T04:06:30.718Z,6.15
2018-12-21T04:08:58.866Z,6.13
2018-12-21T04:11:27.108Z,6.19
2018-12-21T04:13:55.254Z,6.18
2018-12-21T04:16:23.601Z,6.15
2018-12-21T04:18:51.764Z,6.12
2018-12-21T04:21:19.914Z,6.10
2018-12-21T04:23:48.062Z,6.15
2018-12-21T04:26:16.396Z,6.04
2018-12-21T04:28:44.585Z,6.02
2018-12-21T04:31:12.777Z,6.06
2018-12-21T04:33:40.941Z,6.02
2018-12-21T04:36:09.104Z,6.10
2018-12-21T04:38:37.246Z,6.07
2018-12-21T04:41:05.402Z,6.15
2018-12-21T04:43:33.598Z,6.19
2018-12-21T04:46:02.420Z,6.24
2018-12-21T04:48:30.703Z,6.23
2018-12-21T04:50:58.930Z,6.26
2018-12-21T04:53:27.192Z,6.28
2018-12-21T04:55:55.325Z,6.28
2018-12-21T04:58:23.731Z,6.35
2018-12-21T05:00:51.974Z,6.31
2018-12-21T05:03:20.117Z,6.36
2018-12-21T05:05:48.283Z,6.34
2018-12-21T05:08:16.606Z,6.43
2018-12-21T05:10:44.751Z,6.45
2018-12-21T05:13:12.874Z,6.43
2018-12-21T05:15:41.031Z,6.48
2018-12-21T05:18:09.163Z,6.52
2018-12-21T05:20:37.309Z,6.57
2018-12-21T05:23:05.542Z,6.48
2018-12-21T05:25:34.209Z,6.49
2018-12-21T05:28:02.335Z,6.63
2018-12-21T05:30:30.503Z,6.59
2018-12-21T05:32:58.753Z,6.64
2018-12-21T05:35:26.911Z,6.76
2018-12-21T05:37:55.080Z,6.84
2018-12-21T05:40:23.382Z,6.89
2018-12-21T05:42:51.597Z,6.87
2018-12-21T05:45:19.844Z,6.96
2018-12-21T05:47:47.995Z,6.98
2018-12-21T05:50:16.145Z,6.98
2018-12-21T05:52:44.309Z,7.05
2018-12-21T05:55:12.526Z,7.04
2018-12-21T05:57:40.670Z,7.03
2018-12-21T06:00:10.241Z,7.06
2018-12-21T06:02:38.403Z,7.08
2018-12-21T06:05:07.017Z,7.10
2018-12-21T06:07:36.197Z,7.12
2018-12-21T06:10:04.683Z,7.16
2018-12-21T06:12:32.874Z,7.24
2018-12-21T06:15:00.999Z,7.26
2018-12-21T06:17:29.141Z,7.21
2018-12-21T06:19:57.344Z,7.30
2018-12-21T06:22:25.680Z,7.40
2018-12-21T06:24:53.921Z,7.42
2018-12-21T06:27:22.284Z,7.55
2018-12-21T06:29:50.422Z,7.88
2018-12-21T06:32:18.637Z,8.20
2018-12-21T06:34:46.785Z,8.25
2018-12-21T06:37:14.928Z,8.17
2018-12-21T06:39:43.062Z,8.13
2018-12-21T06:42:11.336Z,8.26
2018-12-21T06:44:39.514Z,8.22
2018-12-21T06:47:07.754Z,8.19
2018-12-21T06:49:35.902Z,8.18
2018-12-21T06:52:04.109Z,8.18
2018-12-21T06:54:32.267Z,8.08
2018-12-21T06:57:00.552Z,8.09
2018-12-21T06:59:28.735Z,8.12
2018-12-21T07:01:57.134Z,8.09
2018-12-21T07:04:25.301Z,8.01
2018-12-21T07:06:53.594Z,7.85
2018-12-21T07:09:21.730Z,7.77
2018-12-21T07:11:49.994Z,7.73
2018-12-21T07:14:18.543Z,7.64
2018-12-21T07:16:46.885Z,7.58
2018-12-21T07:19:15.028Z,7.64
2018-12-21T07:21:43.282Z,7.64
2018-12-21T07:24:11.495Z,7.68
2018-12-21T07:26:39.714Z,7.67
2018-12-21T07:29:08.805Z,7.72
2018-12-21T07:31:37.000Z,7.79
2018-12-21T07:34:05.126Z,7.82
2018-12-21T07:36:33.380Z,7.86
2018-12-21T07:39:01.655Z,7.87
2018-12-21T07:41:29.929Z,7.87
2018-12-21T07:44:01.730Z,7.86
2018-12-21T07:46:30.890Z,7.81
2018-12-21T07:48:59.034Z,7.79
2018-12-21T07:51:27.278Z,7.79
2018-12-21T07:53:55.449Z,7.84
2018-12-21T07:56:23.663Z,7.80
2018-12-21T07:58:57.169Z,7.80
2018-12-21T08:01:21.997Z,7.76
2018-12-21T08:03:50.155Z,7.75
2018-12-21T08:06:18.447Z,7.80
2018-12-21T08:08:46.609Z,7.83
2018-12-21T08:11:14.862Z,7.87
2018-12-21T08:13:43.034Z,7.85
2018-12-21T08:16:11.320Z,7.87
2018-12-21T08:18:40.128Z,7.91
2018-12-21T08:21:08.274Z,7.87
2018-12-21T08:23:44.076Z,7.89
2018-12-21T08:26:06.718Z,7.91
2018-12-21T08:28:34.868Z,7.94
2018-12-21T08:31:03.017Z,7.95
2018-12-21T08:33:31.186Z,7.96
2018-12-21T08:35:59.585Z,7.96
2018-12-21T08:38:27.736Z,7.94
2018-12-21T08:40:56.833Z,7.98
2018-12-21T08:43:24.967Z,7.95
2018-12-21T08:45:53.119Z,7.95
2018-12-21T08:48:21.600Z,7.92
2018-12-21T08:50:49.877Z,7.90
2018-12-21T08:53:18.221Z,7.93
2018-12-21T08:55:46.441Z,7.87
2018-12-21T08:58:14.586Z,7.95
2018-12-21T09:00:42.757Z,7.93
2018-12-21T09:03:11.366Z,7.90
2018-12-21T09:05:39.616Z,7.94
2018-12-21T09:08:07.826Z,7.93
2018-12-21T09:10:36.057Z,7.98
2018-12-21T09:13:04.381Z,8.05
2018-12-21T09:15:32.674Z,8.10
2018-12-21T09:18:00.834Z,8.21
2018-12-21T09:20:29.055Z,8.40
2018-12-21T09:22:57.201Z,8.47
2018-12-21T09:25:25.537Z,8.54
2018-12-21T09:27:53.725Z,8.60
2018-12-21T09:30:21.962Z,8.66
2018-12-21T09:32:50.091Z,8.69
2018-12-21T09:35:18.257Z,8.79
2018-12-21T09:37:46.468Z,8.81
2018-12-21T09:40:14.762Z,8.79
2018-12-21T09:42:42.906Z,8.77
2018-12-21T09:45:11.233Z,8.75
2018-12-21T09:47:39.455Z,8.72
2018-12-21T09:50:09.616Z,8.66
2018-12-21T09:52:37.859Z,8.59
2018-12-21T09:55:07.312Z,8.60
2018-12-21T09:57:35.463Z,8.63
2018-12-21T10:00:03.960Z,8.58
2018-12-21T10:02:35.795Z,8.55
2018-12-21T10:05:02.329Z,8.60
2018-12-21T10:07:30.776Z,8.63
2018-12-21T10:09:59.025Z,8.66
2018-12-21T10:12:27.189Z,8.69
2018-12-21T10:14:55.614Z,8.82
2018-12-21T10:17:23.806Z,8.91
2018-12-21T10:19:51.945Z,8.99
2018-12-21T10:22:20.113Z,9.03
2018-12-21T10:24:48.269Z,9.11
2018-12-21T10:27:16.425Z,9.16
2018-12-21T10:29:44.543Z,9.27
2018-12-21T10:32:12.737Z,9.32
2018-12-21T10:34:40.970Z,9.41
2018-12-21T10:37:09.169Z,9.42
2018-12-21T10:39:37.356Z,9.49
2018-12-21T10:42:05.754Z,9.54
2018-12-21T10:44:34.102Z,9.55
2018-12-21T10:47:02.226Z,9.53
2018-12-21T10:49:32.018Z,9.54
2018-12-21T10:52:00.333Z,9.62
2018-12-21T10:54:28.517Z,9.56
2018-12-21T10:56:56.646Z,9.65
2018-12-21T10:59:24.817Z,9.61
2018-12-21T11:01:52.962Z,9.60
2018-12-21T11:04:21.097Z,9.59
2018-12-21T11:06:49.264Z,9.61
2018-12-21T11:09:17.411Z,9.62
2018-12-21T11:11:45.617Z,9.67
2018-12-21T11:14:13.927Z,9.68
2018-12-21T11:16:42.054Z,9.68
2018-12-21T11:19:10.298Z,9.72
2018-12-21T11:21:38.429Z,9.75
2018-12-21T11:24:06.553Z,9.82
2018-12-21T11:26:34.685Z,9.86
2018-12-21T11:29:02.919Z,9.92
2018-12-21T11:31:31.295Z,9.98
2018-12-21T11:33:59.713Z,10.05
2018-12-21T11:36:27.898Z,10.07
2018-12-21T11:38:56.053Z,10.11
2018-12-21T11:41:24.234Z,10.15
2018-12-21T11:43:52.550Z,10.26
2018-12-21T11:46:20.698Z,10.29
2018-12-21T11:48:49.249Z,10.31
2018-12-21T11:51:17.473Z,10.36
2018-12-21T11:53:46.429Z,10.35
2018-12-21T11:56:14.611Z,10.38
2018-12-21T11:58:42.758Z,10.42
2018-12-21T12:01:11.089Z,10.43
2018-12-21T12:03:39.245Z,10.46
2018-12-21T12:06:07.390Z,10.50
2018-12-21T12:08:35.533Z,10.50
2018-12-21T12:11:03.792Z,10.52
2018-12-21T12:13:32.029Z,10.57
2018-12-21T12:16:00.183Z,10.63
2018-12-21T12:18:28.337Z,10.68
2018-12-21T12:20:56.505Z,10.72
2018-12-21T12:23:24.668Z,10.69
2018-12-21T12:25:52.829Z,10.74
2018-12-21T12:28:20.982Z,10.78
2018-12-21T12:30:50.502Z,10.76
2018-12-21T12:33:18.805Z,10.71
2018-12-21T12:35:47.805Z,10.74
2018-12-21T12:38:15.970Z,10.74
2018-12-21T12:40:44.101Z,10.76
2018-12-21T12:43:14.629Z,10.77
2018-12-21T12:45:42.757Z,10.80
2018-12-21T12:48:10.901Z,10.77
2018-12-21T12:50:39.118Z,10.72
2018-12-21T12:53:07.282Z,10.75
2018-12-21T12:55:35.419Z,10.76
2018-12-21T12:58:03.640Z,10.75
2018-12-21T13:00:32.037Z,10.84
2018-12-21T13:03:00.197Z,10.84
2018-12-21T13:05:28.331Z,10.85
2018-12-21T13:07:56.478Z,10.87
2018-12-21T13:10:24.638Z,10.90
2018-12-21T13:12:52.958Z,10.87
2018-12-21T13:15:21.230Z,10.88
2018-12-21T13:17:49.357Z,10.87
2018-12-21T13:20:17.517Z,10.89
2018-12-21T13:22:45.829Z,10.88
2018-12-21T13:25:13.999Z,10.99
2018-12-21T13:27:42.141Z,11.07
2018-12-21T13:30:12.097Z,11.21
2018-12-21T13:32:40.282Z,11.21
2018-12-21T13:35:08.882Z,11.20
2018-12-21T13:37:37.113Z,11.21
2018-12-21T13:40:08.106Z,11.22
2018-12-21T13:42:36.213Z,11.21
2018-12-21T13:45:05.243Z,11.24
2018-12-21T13:47:33.369Z,11.29
2018-12-21T13:50:01.635Z,11.38
2018-12-21T13:52:29.766Z,11.36
2018-12-21T13:54:57.969Z,11.35
2018-12-21T13:57:26.263Z,11.32
2018-12-21T13:59:54.409Z,11.26
2018-12-21T14:02:22.597Z,11.22
2018-12-21T14:04:51.002Z,11.14
2018-12-21T14:07:19.126Z,11.16
2018-12-21T14:09:47.262Z,11.26
2018-12-21T14:12:15.445Z,11.39
2018-12-21T14:14:43.628Z,11.38
2018-12-21T14:17:11.842Z,11.37
2018-12-21T14:19:40.149Z,11.30
2018-12-21T14:22:08.276Z,11.39
2018-12-21T14:24:36.534Z,11.47
2018-12-21T14:27:04.850Z,11.29
2018-12-21T14:29:33.062Z,11.06
2018-12-21T14:32:01.233Z,10.94
2018-12-21T14:34:29.388Z,10.87
2018-12-21T14:36:57.506Z,10.89
2018-12-21T14:39:25.839Z,10.86
2018-12-21T14:41:54.034Z,10.90
2018-12-21T14:44:22.786Z,10.93
2018-12-21T14:46:50.894Z,10.90
2018-12-21T14:49:19.059Z,10.98
2018-12-21T14:51:47.161Z,10.96
2018-12-21T14:54:15.746Z,10.99
2018-12-21T14:56:43.922Z,11.00
2018-12-21T14:59:12.065Z,11.04
2018-12-21T15:01:40.195Z,11.03
2018-12-21T15:04:08.639Z,11.12
2018-12-21T15:06:36.887Z,11.13
2018-12-21T15:09:07.090Z,11.10
2018-12-21T15:11:35.225Z,11.04
2018-12-21T15:14:03.394Z,11.03
2018-12-21T15:16:31.554Z,11.01
2018-12-21T15:18:59.822Z,11.01
2018-12-21T15:21:27.992Z,11.04
2018-12-21T15:23:56.302Z,11.04
2018-12-21T15:26:24.666Z,11.04
2018-12-21T15:28:52.954Z,11.11
2018-12-21T15:31:21.163Z,11.20
2018-12-21T15:33:49.543Z,11.55
2018-12-21T15:36:18.094Z,11.85
2018-12-21T15:38:46.204Z,11.96
2018-12-21T15:41:14.525Z,12.08
2018-12-21T15:43:42.641Z,12.16
2018-12-21T15:46:10.947Z,12.22
2018-12-21T15:48:39.307Z,12.20
2018-12-21T15:51:07.681Z,12.24
2018-12-21T15:53:35.899Z,12.29
2018-12-21T15:56:04.213Z,12.36
2018-12-21T15:58:32.366Z,12.39
2018-12-21T16:01:00.578Z,12.34
2018-12-21T16:03:28.756Z,12.45
2018-12-21T16:05:56.935Z,12.53
2018-12-21T16:08:25.804Z,12.60
2018-12-21T16:10:53.938Z,12.64
2018-12-21T16:13:22.069Z,12.51
2018-12-21T16:15:50.193Z,12.49
2018-12-21T16:18:18.586Z,12.48
2018-12-21T16:20:46.983Z,12.51
2018-12-21T16:23:15.475Z,12.61
2018-12-21T16:25:43.870Z,12.70
2018-12-21T16:28:12.267Z,12.72
2018-12-21T16:30:40.458Z,12.72
2018-12-21T16:33:08.566Z,12.72
2018-12-21T16:35:36.702Z,12.63
2018-12-21T16:38:04.857Z,12.73
2018-12-21T16:40:33.141Z,12.84
2018-12-21T16:43:01.283Z,12.98
2018-12-21T16:45:29.456Z,13.00
2018-12-21T16:47:57.589Z,12.95
2018-12-21T16:50:25.729Z,12.97
2018-12-21T16:52:53.882Z,12.95
2018-12-21T16:55:22.122Z,12.90
2018-12-21T16:57:50.326Z,12.98
2018-12-21T17:00:18.563Z,12.98
2018-12-21T17:02:46.742Z,13.05
2018-12-21T17:05:15.026Z,13.00
2018-12-21T17:07:43.273Z,13.08
2018-12-21T17:10:18.951Z,13.10
2018-12-21T17:12:47.315Z,13.12
2018-12-21T17:15:15.655Z,13.06
2018-12-21T17:17:43.855Z,13.06
2018-12-21T17:20:12.162Z,13.00
2018-12-21T17:22:40.396Z,13.06
2018-12-21T17:25:11.438Z,13.03
2018-12-21T17:27:39.617Z,12.95
2018-12-21T17:30:10.186Z,13.07
2018-12-21T17:32:38.303Z,13.11
2018-12-21T17:35:07.477Z,13.06
2018-12-21T17:37:35.966Z,13.09
2018-12-21T17:40:05.386Z,13.11
2018-12-21T17:42:33.586Z,13.09
2018-12-21T17:45:01.893Z,13.06
2018-12-21T17:47:30.035Z,13.08
2018-12-21T17:49:58.205Z,13.21
2018-12-21T17:52:26.533Z,13.11
2018-12-21T17:54:54.665Z,13.07
2018-12-21T17:57:22.823Z,13.10
2018-12-21T17:59:51.035Z,13.02
2018-12-21T18:02:19.252Z,13.06
2018-12-21T18:04:47.487Z,13.00
2018-12-21T18:07:15.658Z,12.94
2018-12-21T18:09:43.837Z,13.01
2018-12-21T18:12:11.977Z,12.88
2018-12-21T18:14:40.106Z,12.83
2018-12-21T18:17:08.260Z,12.95
2018-12-21T18:19:36.634Z,12.84
2018-12-21T18:22:22.824Z,12.85
2018-12-21T18:24:57.464Z,12.89
2018-12-21T18:27:26.018Z,12.82
2018-12-21T18:29:54.161Z,12.72
2018-12-21T18:32:30.297Z,12.69
2018-12-21T18:35:02.609Z,12.71
2018-12-21T18:37:30.742Z,12.68
2018-12-21T18:39:58.870Z,12.70
2018-12-21T18:42:27.023Z,12.54
2018-12-21T18:44:55.150Z,12.42
2018-12-21T18:47:23.291Z,12.30
2018-12-21T18:49:51.570Z,12.48
2018-12-21T18:52:19.719Z,12.45
2018-12-21T18:54:48.043Z,12.34
2018-12-21T18:57:18.273Z,12.39
2018-12-21T18:59:46.394Z,12.29
2018-12-21T19:02:14.552Z,12.30
2018-12-21T19:04:42.674Z,12.25
2018-12-21T19:07:10.816Z,12.28
2018-12-21T19:09:38.992Z,12.28
2018-12-21T19:12:07.187Z,12.21
2018-12-21T19:14:35.306Z,12.24
2018-12-21T19:17:03.985Z,12.21
2018-12-21T19:19:32.097Z,12.12
2018-12-21T19:22:01.224Z,12.16
2018-12-21T19:24:29.448Z,12.06
2018-12-21T19:26:57.585Z,12.00
2018-12-21T19:29:25.734Z,11.94
2018-12-21T19:31:53.947Z,11.97
2018-12-21T19:34:22.098Z,11.90
2018-12-21T19:36:50.406Z,11.92
2018-12-21T19:39:18.578Z,11.94
2018-12-21T19:41:46.819Z,11.98
2018-12-21T19:44:14.959Z,12.00
2018-12-21T19:46:43.137Z,12.05
2018-12-21T19:49:11.250Z,12.23
2018-12-21T19:51:39.395Z,12.26
2018-12-21T19:54:08.379Z,12.27
2018-12-21T19:56:52.788Z,12.29
2018-12-21T19:59:20.935Z,12.33
2018-12-21T20:01:49.063Z,12.37
2018-12-21T20:04:17.273Z,12.38
2018-12-21T20:06:45.615Z,12.35
2018-12-21T20:09:13.907Z,12.40
2018-12-21T20:11:42.038Z,12.26
2018-12-21T20:14:10.199Z,12.41
2018-12-21T20:16:38.371Z,12.34
2018-12-21T20:19:07.261Z,12.24
2018-12-21T20:21:35.558Z,12.27
2018-12-21T20:24:04.009Z,12.27
2018-12-21T20:26:32.168Z,12.40
2018-12-21T20:29:00.346Z,12.26
2018-12-21T20:31:28.592Z,12.35
2018-12-21T20:33:56.839Z,12.42
2018-12-21T20:36:25.254Z,12.49
2018-12-21T20:38:53.407Z,12.41
2018-12-21T20:41:21.566Z,12.34
2018-12-21T20:43:49.741Z,12.30
2018-12-21T20:46:17.918Z,12.30
2018-12-21T20:48:46.077Z,12.26
2018-12-21T20:51:14.194Z,12.29
2018-12-21T20:53:42.454Z,12.28
2018-12-21T20:56:10.690Z,12.33
2018-12-21T20:58:43.658Z,12.44
2018-12-21T21:01:11.777Z,12.45
2018-12-21T21:03:40.031Z,12.47
2018-12-21T21:06:08.533Z,12.50
2018-12-21T21:08:37.011Z,12.64
2018-12-21T21:11:05.244Z,12.60
2018-12-21T21:13:33.369Z,12.65
2018-12-21T21:16:01.505Z,12.53
2018-12-21T21:18:29.629Z,12.52
2018-12-21T21:20:57.770Z,12.53
2018-12-21T21:23:25.987Z,12.51
2018-12-21T21:25:54.312Z,12.35
2018-12-21T21:28:22.673Z,12.27
2018-12-21T21:30:50.814Z,12.30
2018-12-21T21:33:19.031Z,12.25
2018-12-21T21:35:47.169Z,12.34
2018-12-21T21:38:15.320Z,12.36
2018-12-21T21:40:43.467Z,12.34
2018-12-21T21:43:13.969Z,12.39
2018-12-21T21:45:42.094Z,12.24
2018-12-21T21:48:10.270Z,12.07
2018-12-21T21:50:38.383Z,12.01
2018-12-21T21:53:06.780Z,11.97
2018-12-21T21:55:35.006Z,11.89
2018-12-21T21:58:03.126Z,11.78
2018-12-21T22:02:40.450Z,11.61
2018-12-21T22:05:08.769Z,11.48
2018-12-21T22:07:37.003Z,11.47
2018-12-21T22:10:07.536Z,11.38
2018-12-21T22:12:35.649Z,11.35
2018-12-21T22:15:04.030Z,11.36
2018-12-21T22:17:32.280Z,11.29
2018-12-21T22:20:00.514Z,11.31
2018-12-21T22:22:28.654Z,11.29
2018-12-21T22:24:56.822Z,11.32
2018-12-21T22:27:25.010Z,11.43
2018-12-21T22:29:53.156Z,11.42
2018-12-21T22:32:21.278Z,11.51
2018-12-21T22:34:49.478Z,11.58
2018-12-21T22:37:17.674Z,11.68
2018-12-21T22:39:45.849Z,11.79
2018-12-21T22:42:14.157Z,11.84
2018-12-21T22:44:42.307Z,11.75
2018-12-21T22:47:11.139Z,11.74
2018-12-21T22:49:39.377Z,11.76
2018-12-21T22:52:07.540Z,11.77
2018-12-21T22:54:35.693Z,11.83
2018-12-21T22:57:03.810Z,11.77
2018-12-21T22:59:31.959Z,11.85
2018-12-21T23:02:00.344Z,11.83
2018-12-21T23:04:28.539Z,11.75
2018-12-21T23:06:56.658Z,11.81
2018-12-21T23:09:24.914Z,11.77
2018-12-21T23:11:53.055Z,11.79
2018-12-21T23:14:21.195Z,11.68
2018-12-21T23:16:49.349Z,11.56
2018-12-21T23:19:17.486Z,11.52
2018-12-21T23:21:45.752Z,11.53
2018-12-21T23:24:13.909Z,11.52
2018-12-21T23:26:42.223Z,11.48
2018-12-21T23:29:10.414Z,11.45
2018-12-21T23:31:38.641Z,11.43
2018-12-21T23:34:06.882Z,11.43
2018-12-21T23:36:34.998Z,11.44
2018-12-21T23:39:04.191Z,11.45
2018-12-21T23:41:32.321Z,11.48
2018-12-21T23:44:00.492Z,11.50
2018-12-21T23:46:28.632Z,11.56
2018-12-21T23:48:56.915Z,11.49
2018-12-21T23:51:25.159Z,11.52
2018-12-21T23:53:53.288Z,11.42
2018-12-21T23:56:21.509Z,11.30
2018-12-21T23:58:49.793Z,11.34
